Time;durP1;ratioP1;P1;durP2;ratioP2;P2;SDS_P1;SDS_P2;PMS_P1;PMS_P2;Temp;Humidity;BMP_temperature;BMP_pressure;BME280_temperature;BME280_humidity;BME280_pressure;Samples;Min_cycle;Max_cycle;Signal;HPM_P1;HPM_P2
2020/12/25 00:00:51;;;;;;;3.45;2.90;;;7.30;90.10;;;;;;5011480;28;20203;-27
2020/12/25 00:03:37;;;;;;;3.67;2.65;;;7.30;89.40;;;;;;5010896;28;20278;-27
2020/12/25 00:06:07;;;;;;;3.90;3.60;;;7.20;90.20;;;;;;5009420;28;20587;-27
2020/12/25 00:08:37;;;;;;;3.10;2.90;;;7.20;90.50;;;;;;4992072;28;20639;-27
2020/12/25 00:11:09;;;;;;;4.45;4.03;;;7.10;90.10;;;;;;4992411;28;20712;-27
2020/12/25 00:13:45;;;;;;;4.10;3.75;;;7.00;90.60;;;;;;5003854;28;20540;-28
2020/12/25 00:16:15;;;;;;;4.53;3.47;;;7.00;91.20;;;;;;5011409;28;20223;-27
2020/12/25 00:18:45;;;;;;;5.05;4.55;;;6.90;91.20;;;;;;5004393;28;20203;-26
2020/12/25 00:21:18;;;;;;;3.40;2.88;;;6.90;92.10;;;;;;5006578;28;20261;-27
2020/12/25 00:23:48;;;;;;;3.60;2.80;;;6.80;91.50;;;;;;5010667;28;20226;-27
2020/12/25 00:26:29;;;;;;;3.50;3.20;;;6.70;92.20;;;;;;5010265;28;20219;-27
2020/12/25 00:29:00;;;;;;;3.95;3.65;;;6.70;92.30;;;;;;4998613;28;20204;-27
2020/12/25 00:31:31;;;;;;;3.75;3.45;;;6.70;92.30;;;;;;4992254;28;20196;-27
2020/12/25 00:34:02;;;;;;;2.95;2.75;;;6.60;92.30;;;;;;5005192;28;20260;-27
2020/12/25 00:36:33;;;;;;;7.25;3.72;;;6.50;92.70;;;;;;5010916;28;20291;-27
2020/12/25 00:39:05;;;;;;;3.80;3.35;;;6.50;92.90;;;;;;5011053;28;20196;-27
2020/12/25 00:41:40;;;;;;;4.50;4.10;;;6.50;92.90;;;;;;5010454;28;20672;-26
2020/12/25 00:44:10;;;;;;;4.55;3.10;;;6.50;92.80;;;;;;5010124;28;20203;-27
2020/12/25 00:46:41;;;;;;;3.97;2.72;;;6.40;93.40;;;;;;5010736;28;20570;-26
2020/12/25 00:49:12;;;;;;;4.13;3.78;;;6.40;93.50;;;;;;5011058;28;20298;-27
2020/12/25 00:51:44;;;;;;;3.15;2.85;;;6.30;93.50;;;;;;5009830;28;20195;-27
2020/12/25 00:54:14;;;;;;;4.43;3.20;;;6.40;93.60;;;;;;5009950;28;20192;-27
2020/12/25 00:56:46;;;;;;;3.42;3.13;;;6.30;93.40;;;;;;5010073;28;20554;-28
2020/12/25 00:59:17;;;;;;;3.90;3.60;;;6.30;93.50;;;;;;5009257;28;20282;-27
2020/12/25 01:01:47;;;;;;;3.67;3.35;;;6.20;93.90;;;;;;5007043;28;20243;-26
2020/12/25 01:04:17;;;;;;;2.92;2.72;;;6.20;94.10;;;;;;5009431;28;20285;-26
2020/12/25 01:06:48;;;;;;;3.55;3.10;;;6.20;94.20;;;;;;5009669;28;20280;-26
2020/12/25 01:09:18;;;;;;;3.83;3.15;;;6.20;94.40;;;;;;5009126;28;20198;-27
2020/12/25 01:11:49;;;;;;;5.68;4.75;;;6.20;94.90;;;;;;5009235;28;20239;-27
2020/12/25 01:14:19;;;;;;;4.53;3.65;;;6.20;95.50;;;;;;5009510;28;20203;-27
2020/12/25 01:16:51;;;;;;;3.97;3.63;;;6.20;94.80;;;;;;5009084;28;20223;-27
2020/12/25 01:19:23;;;;;;;4.25;3.95;;;6.20;94.70;;;;;;5009281;28;20203;-27
2020/12/25 01:21:53;;;;;;;4.00;3.70;;;6.20;94.00;;;;;;5009543;28;20266;-26
2020/12/25 01:24:26;;;;;;;3.80;3.40;;;6.20;94.30;;;;;;5008633;28;20199;-28
2020/12/25 01:26:58;;;;;;;5.38;4.30;;;6.20;94.90;;;;;;5003901;28;20230;-27
2020/12/25 01:29:28;;;;;;;5.18;4.65;;;6.10;94.80;;;;;;5009266;28;20206;-28
2020/12/25 01:31:59;;;;;;;5.25;3.95;;;6.10;94.70;;;;;;5009847;28;20230;-26
2020/12/25 01:34:34;;;;;;;4.47;4.07;;;6.10;94.70;;;;;;5008907;28;20217;-26
2020/12/25 01:37:05;;;;;;;3.58;3.30;;;6.10;95.00;;;;;;5009424;28;20582;-26
2020/12/25 01:39:35;;;;;;;5.22;3.83;;;6.00;94.90;;;;;;5009239;28;20229;-26
2020/12/25 01:42:07;;;;;;;4.80;4.40;;;6.00;95.70;;;;;;5009402;28;20203;-27
2020/12/25 01:44:37;;;;;;;5.05;3.85;;;6.00;95.80;;;;;;5009267;28;20646;-27
2020/12/25 01:47:07;;;;;;;4.40;4.00;;;6.00;96.00;;;;;;5009601;28;20199;-27
2020/12/25 01:49:38;;;;;;;4.45;4.05;;;5.90;95.80;;;;;;5009480;28;20218;-27
2020/12/25 01:52:09;;;;;;;4.88;4.32;;;5.90;95.80;;;;;;5010218;28;20635;-27
2020/12/25 01:54:39;;;;;;;4.60;4.20;;;5.90;96.50;;;;;;5008940;28;20214;-27
2020/12/25 01:57:12;;;;;;;4.15;3.83;;;5.90;96.50;;;;;;5007624;28;20222;-27
2020/12/25 01:59:42;;;;;;;9.50;6.03;;;5.90;96.00;;;;;;5009002;28;20210;-27
2020/12/25 02:02:16;;;;;;;4.75;4.35;;;5.90;97.90;;;;;;5009437;28;20261;-27
2020/12/25 02:04:53;;;;;;;4.15;3.75;;;5.90;96.60;;;;;;5000326;28;20570;-27
2020/12/25 02:07:23;;;;;;;4.40;4.00;;;5.80;97.00;;;;;;5007796;28;20195;-29
2020/12/25 02:09:53;;;;;;;4.30;4.00;;;5.80;96.90;;;;;;5008425;28;20700;-29
2020/12/25 02:12:25;;;;;;;6.53;4.65;;;5.70;97.20;;;;;;5008958;28;20258;-29
2020/12/25 02:14:55;;;;;;;4.32;3.75;;;5.70;97.50;;;;;;5008859;28;20200;-29
2020/12/25 02:17:25;;;;;;;4.40;4.05;;;5.70;97.60;;;;;;5009121;28;20237;-30
2020/12/25 02:19:55;;;;;;;4.40;4.00;;;5.70;97.60;;;;;;5009110;28;20291;-29
2020/12/25 02:22:27;;;;;;;11.07;10.07;;;5.70;97.30;;;;;;5009795;28;20592;-29
2020/12/25 02:24:57;;;;;;;21.42;19.35;;;5.70;97.60;;;;;;4993109;28;20662;-30
2020/12/25 02:27:27;;;;;;;15.45;13.88;;;5.60;97.50;;;;;;5008297;28;20664;-29
2020/12/25 02:29:57;;;;;;;9.65;8.80;;;5.60;97.50;;;;;;5008584;28;20313;-29
2020/12/25 02:32:27;;;;;;;33.92;30.27;;;5.60;97.60;;;;;;5009265;28;20210;-29
2020/12/25 02:35:13;;;;;;;19.48;17.35;;;5.60;97.90;;;;;;5008793;28;20199;-28
2020/12/25 02:37:44;;;;;;;36.53;33.25;;;5.60;97.90;;;;;;5012477;28;20218;-28
2020/12/25 02:40:14;;;;;;;24.13;21.83;;;5.50;98.40;;;;;;5017390;28;20207;-28
2020/12/25 02:42:45;;;;;;;15.65;14.05;;;5.50;98.10;;;;;;5013417;28;20208;-28
2020/12/25 02:45:15;;;;;;;11.50;10.38;;;5.50;97.90;;;;;;5012371;28;20200;-28
2020/12/25 02:47:45;;;;;;;11.95;10.75;;;5.50;98.80;;;;;;5011960;28;20199;-28
2020/12/25 02:50:15;;;;;;;9.43;8.65;;;5.50;98.20;;;;;;5012333;28;20274;-29
2020/12/25 02:52:46;;;;;;;22.60;20.40;;;5.50;98.10;;;;;;5012354;28;20203;-28
2020/12/25 02:55:17;;;;;;;25.13;22.42;;;5.50;97.90;;;;;;5011979;28;20238;-29
2020/12/25 02:57:47;;;;;;;15.27;12.02;;;5.50;98.30;;;;;;5007832;28;20659;-29
2020/12/25 03:00:17;;;;;;;7.32;5.13;;;5.40;98.00;;;;;;5012465;28;20226;-28
2020/12/25 03:02:47;;;;;;;54.85;38.92;;;5.40;98.00;;;;;;5011796;28;20285;-28
2020/12/25 03:05:33;;;;;;;35.53;29.48;;;5.40;98.00;;;;;;5011584;28;20210;-29
2020/12/25 03:08:04;;;;;;;10.20;8.95;;;5.30;98.00;;;;;;5011785;28;20249;-29
2020/12/25 03:10:34;;;;;;;73.22;54.45;;;5.30;98.10;;;;;;5011632;28;20234;-28
2020/12/25 03:13:05;;;;;;;18.25;15.77;;;5.30;98.20;;;;;;5011506;28;20656;-28
2020/12/25 03:15:35;;;;;;;13.75;10.93;;;5.30;98.00;;;;;;5012440;28;20250;-27
2020/12/25 03:18:05;;;;;;;15.32;13.73;;;5.30;98.20;;;;;;5011889;28;20223;-28
2020/12/25 03:20:35;;;;;;;8.25;7.65;;;5.30;98.10;;;;;;5011540;28;20218;-29
2020/12/25 03:23:06;;;;;;;5.88;5.43;;;5.40;98.00;;;;;;5011858;28;20686;-29
2020/12/25 03:25:36;;;;;;;8.57;7.90;;;5.30;98.10;;;;;;5006510;28;20551;-28
2020/12/25 03:28:06;;;;;;;7.78;7.05;;;5.30;97.60;;;;;;5011342;28;20626;-28
2020/12/25 03:30:36;;;;;;;10.18;9.18;;;5.30;97.80;;;;;;5011188;28;20203;-33
2020/12/25 03:33:07;;;;;;;5.97;3.80;;;5.30;98.00;;;;;;5011022;28;20607;-29
2020/12/25 03:35:51;;;;;;;15.07;13.68;;;5.30;97.70;;;;;;5011323;28;20340;-28
2020/12/25 03:38:22;;;;;;;11.18;10.23;;;5.30;97.60;;;;;;5011224;28;20231;-27
2020/12/25 03:40:52;;;;;;;11.85;10.93;;;5.30;97.30;;;;;;5009674;28;20196;-28
2020/12/25 03:43:22;;;;;;;10.32;7.50;;;5.40;97.00;;;;;;5004463;28;20274;-28
2020/12/25 03:45:52;;;;;;;6.30;5.40;;;5.40;97.10;;;;;;5011160;28;20307;-28
2020/12/25 03:48:23;;;;;;;14.85;13.38;;;5.50;97.70;;;;;;5010703;28;20249;-28
2020/12/25 03:50:53;;;;;;;8.18;7.25;;;5.50;97.40;;;;;;5010219;28;20572;-28
2020/12/25 03:53:24;;;;;;;7.72;6.90;;;5.50;96.70;;;;;;5003871;28;20225;-28
2020/12/25 03:55:54;;;;;;;5.25;3.53;;;5.50;96.50;;;;;;5009885;28;20195;-28
2020/12/25 03:58:24;;;;;;;5.78;5.18;;;5.50;96.70;;;;;;5010672;28;20235;-28
2020/12/25 04:00:54;;;;;;;5.03;3.25;;;5.50;96.30;;;;;;5010182;28;20253;-28
2020/12/25 04:03:25;;;;;;;4.97;4.45;;;5.50;96.40;;;;;;5011096;28;20199;-28
2020/12/25 04:06:10;;;;;;;6.00;4.85;;;5.50;96.30;;;;;;5011293;28;20199;-28
2020/12/25 04:08:41;;;;;;;3.88;2.80;;;5.50;95.80;;;;;;5010906;28;20619;-28
2020/12/25 04:11:12;;;;;;;7.40;6.15;;;5.60;95.70;;;;;;4999009;28;20229;-28
2020/12/25 04:13:42;;;;;;;3.42;3.13;;;5.50;96.40;;;;;;5010582;28;20562;-28
2020/12/25 04:16:13;;;;;;;4.03;3.63;;;5.40;96.20;;;;;;5010361;28;20266;-28
2020/12/25 04:18:43;;;;;;;5.70;4.35;;;5.40;96.60;;;;;;5010776;28;20658;-29
2020/12/25 04:21:14;;;;;;;5.68;4.22;;;5.30;96.60;;;;;;5006450;28;20199;-28
2020/12/25 04:23:45;;;;;;;3.63;3.33;;;5.30;96.80;;;;;;5010700;28;20199;-28
2020/12/25 04:26:15;;;;;;;6.25;4.55;;;5.30;96.80;;;;;;5009751;28;20245;-28
2020/12/25 04:28:45;;;;;;;5.82;4.03;;;5.30;96.90;;;;;;5010209;28;20204;-28
2020/12/25 04:31:16;;;;;;;3.88;3.47;;;5.30;96.90;;;;;;5010016;28;20242;-28
2020/12/25 04:33:46;;;;;;;3.60;3.30;;;5.30;97.00;;;;;;5009930;28;20349;-28
2020/12/25 04:36:30;;;;;;;3.95;3.17;;;5.20;97.10;;;;;;5008329;28;20282;-28
2020/12/25 04:39:01;;;;;;;3.58;3.28;;;5.20;97.40;;;;;;5010711;28;20206;-28
2020/12/25 04:41:32;;;;;;;4.43;4.03;;;5.20;97.50;;;;;;5010078;28;20199;-28
2020/12/25 04:44:03;;;;;;;4.40;4.00;;;5.10;97.40;;;;;;5010320;28;20635;-28
2020/12/25 04:46:34;;;;;;;4.70;4.18;;;5.10;97.70;;;;;;5008849;28;20203;-28
2020/12/25 04:49:04;;;;;;;4.30;3.85;;;5.10;97.10;;;;;;4996065;28;20220;-28
2020/12/25 04:51:34;;;;;;;4.43;3.85;;;5.10;97.80;;;;;;4997804;28;20188;-28
2020/12/25 04:54:05;;;;;;;4.20;3.85;;;5.10;97.30;;;;;;5010077;28;20202;-28
2020/12/25 04:56:35;;;;;;;5.30;4.80;;;5.20;97.20;;;;;;5004901;28;20188;-28
2020/12/25 04:59:05;;;;;;;5.72;4.47;;;5.10;98.00;;;;;;5008763;28;20211;-29
2020/12/25 05:01:40;;;;;;;4.72;4.22;;;5.00;98.60;;;;;;4998808;28;20200;-28
2020/12/25 05:04:20;;;;;;;4.35;4.05;;;5.00;98.20;;;;;;5010960;28;20277;-29
2020/12/25 05:06:51;;;;;;;4.05;3.65;;;5.10;98.00;;;;;;4997824;28;20191;-28
2020/12/25 05:09:25;;;;;;;4.00;3.70;;;5.00;97.30;;;;;;5010559;28;20191;-29
2020/12/25 05:11:56;;;;;;;4.15;3.28;;;5.10;97.30;;;;;;5010280;28;20730;-28
2020/12/25 05:14:28;;;;;;;4.05;3.72;;;5.20;97.00;;;;;;5009378;28;20782;-28
2020/12/25 05:16:59;;;;;;;4.03;3.72;;;5.10;97.60;;;;;;4995865;28;20219;-28
2020/12/25 05:19:31;;;;;;;4.22;3.60;;;5.10;97.90;;;;;;4992356;28;20197;-28
2020/12/25 05:22:02;;;;;;;3.30;2.92;;;5.10;97.40;;;;;;4990765;28;20192;-28
2020/12/25 05:24:39;;;;;;;5.88;3.92;;;5.10;97.30;;;;;;4995769;28;20250;-28
2020/12/25 05:27:13;;;;;;;4.47;4.18;;;5.10;97.40;;;;;;5009874;28;20694;-28
2020/12/25 05:29:44;;;;;;;3.90;3.55;;;5.10;97.10;;;;;;5009486;28;20191;-27
2020/12/25 05:32:15;;;;;;;5.57;3.85;;;5.10;97.30;;;;;;5009994;28;20242;-28
2020/12/25 05:34:47;;;;;;;5.60;3.67;;;5.00;97.50;;;;;;5009584;28;20218;-28
2020/12/25 05:37:18;;;;;;;4.50;4.10;;;5.00;97.60;;;;;;5009029;28;20563;-29
2020/12/25 05:39:49;;;;;;;3.90;3.60;;;5.00;97.70;;;;;;5002223;28;20199;-27
2020/12/25 05:42:19;;;;;;;3.60;3.30;;;5.10;97.70;;;;;;5008135;28;20183;-29
2020/12/25 05:44:50;;;;;;;4.32;3.92;;;5.00;97.70;;;;;;4998181;28;20607;-28
2020/12/25 05:47:20;;;;;;;7.35;3.90;;;5.10;97.50;;;;;;4990304;28;20659;-28
2020/12/25 05:49:51;;;;;;;3.80;3.50;;;5.00;97.90;;;;;;4990350;28;20231;-28
2020/12/25 05:52:21;;;;;;;4.15;3.75;;;5.00;97.80;;;;;;4994474;28;20203;-28
2020/12/25 05:54:54;;;;;;;5.15;3.40;;;4.90;98.20;;;;;;5004911;28;20208;-29
2020/12/25 05:57:24;;;;;;;3.33;3.00;;;5.00;98.20;;;;;;4991686;28;20273;-28
2020/12/25 05:59:57;;;;;;;3.50;3.17;;;5.00;98.30;;;;;;5001806;28;20183;-29
2020/12/25 06:02:31;;;;;;;3.70;3.40;;;4.90;97.90;;;;;;5008444;28;20195;-30
2020/12/25 06:05:02;;;;;;;3.42;3.13;;;4.90;98.30;;;;;;4994622;28;20559;-29
2020/12/25 06:07:32;;;;;;;3.30;3.05;;;4.90;98.50;;;;;;5007422;28;20230;-29
2020/12/25 06:10:03;;;;;;;3.50;3.20;;;4.90;98.30;;;;;;4995638;28;20200;-29
2020/12/25 06:12:42;;;;;;;4.22;3.83;;;4.80;98.30;;;;;;4994668;28;20227;-30
2020/12/25 06:15:14;;;;;;;3.63;3.28;;;4.70;98.60;;;;;;5011165;28;20225;-29
2020/12/25 06:17:54;;;;;;;4.22;3.53;;;4.70;98.40;;;;;;4999337;28;20215;-29
2020/12/25 06:20:26;;;;;;;4.38;3.78;;;4.70;98.40;;;;;;5012491;28;20187;-29
2020/12/25 06:22:57;;;;;;;3.40;3.10;;;4.70;98.40;;;;;;5012272;28;20191;-29
2020/12/25 06:25:31;;;;;;;3.83;3.53;;;4.80;99.30;;;;;;5010959;28;20192;-29
2020/12/25 06:28:02;;;;;;;3.10;2.80;;;4.80;98.60;;;;;;5012466;28;20204;-29
2020/12/25 06:30:33;;;;;;;3.75;3.42;;;4.70;98.70;;;;;;5011569;28;20195;-29
2020/12/25 06:33:04;;;;;;;4.15;3.47;;;4.70;99.00;;;;;;5012417;28;20187;-29
2020/12/25 06:35:36;;;;;;;4.55;3.70;;;4.70;98.90;;;;;;5012581;28;20195;-29
2020/12/25 06:38:14;;;;;;;4.90;3.75;;;4.70;99.10;;;;;;5012785;28;20273;-29
2020/12/25 06:40:46;;;;;;;3.50;3.20;;;4.70;99.10;;;;;;5012096;28;20199;-29
2020/12/25 06:43:16;;;;;;;4.55;4.10;;;4.70;99.20;;;;;;5012204;28;20203;-29
2020/12/25 06:45:51;;;;;;;4.53;4.13;;;4.70;99.40;;;;;;5012163;28;20187;-29
2020/12/25 06:48:22;;;;;;;4.47;3.95;;;4.80;99.20;;;;;;5012668;28;20218;-28
2020/12/25 06:50:54;;;;;;;4.53;3.70;;;4.80;99.10;;;;;;5012623;28;20198;-28
2020/12/25 06:53:38;;;;;;;4.57;4.18;;;4.90;98.80;;;;;;5012558;28;20195;-28
2020/12/25 06:56:14;;;;;;;4.25;3.85;;;4.90;99.00;;;;;;5010333;28;20225;-28
2020/12/25 06:58:49;;;;;;;3.90;3.60;;;4.80;99.20;;;;;;5012274;28;20218;-29
2020/12/25 07:01:35;;;;;;;4.20;3.85;;;4.90;99.20;;;;;;5012522;28;20191;-28
2020/12/25 07:04:05;;;;;;;3.63;3.40;;;4.90;99.00;;;;;;4996115;28;20200;-29
2020/12/25 07:06:36;;;;;;;3.72;3.30;;;5.00;98.70;;;;;;5005853;28;20195;-28
2020/12/25 07:09:13;;;;;;;4.22;3.83;;;5.00;98.60;;;;;;5008826;28;20191;-28
2020/12/25 07:11:44;;;;;;;3.88;3.58;;;4.90;99.00;;;;;;5003882;28;20231;-29
2020/12/25 07:14:14;;;;;;;3.70;3.40;;;4.90;99.10;;;;;;5012193;28;20501;-28
2020/12/25 07:16:44;;;;;;;3.67;3.38;;;5.00;98.80;;;;;;5007440;28;20576;-28
2020/12/25 07:19:14;;;;;;;4.15;3.80;;;4.90;99.00;;;;;;5012480;28;20274;-28
2020/12/25 07:21:44;;;;;;;4.80;4.05;;;5.00;98.80;;;;;;5012007;28;20635;-28
2020/12/25 07:24:16;;;;;;;3.53;3.33;;;4.90;98.80;;;;;;4998346;28;20192;-28
2020/12/25 07:26:53;;;;;;;3.60;3.30;;;5.00;98.90;;;;;;5009208;28;20207;-29
2020/12/25 07:29:24;;;;;;;5.00;4.50;;;4.90;98.90;;;;;;5006812;28;20258;-29
2020/12/25 07:31:54;;;;;;;6.68;3.55;;;4.90;99.20;;;;;;5010276;28;20277;-29
2020/12/25 07:34:27;;;;;;;4.63;4.22;;;5.00;98.90;;;;;;5010642;28;20647;-29
2020/12/25 07:36:58;;;;;;;4.60;4.20;;;4.90;99.20;;;;;;5005997;28;20192;-29
2020/12/25 07:39:29;;;;;;;3.90;3.60;;;5.00;99.00;;;;;;4998584;28;20230;-29
2020/12/25 07:42:00;;;;;;;3.92;3.63;;;5.00;99.20;;;;;;5011117;28;20218;-29
2020/12/25 07:44:30;;;;;;;4.93;4.50;;;5.00;99.50;;;;;;5010076;28;20564;-29
2020/12/25 07:47:00;;;;;;;5.72;4.32;;;5.00;99.40;;;;;;5011146;28;20195;-29
2020/12/25 07:49:31;;;;;;;3.88;3.58;;;5.00;99.30;;;;;;4994937;28;20644;-29
2020/12/25 07:52:01;;;;;;;4.70;4.30;;;5.00;99.10;;;;;;4994326;28;20258;-29
2020/12/25 07:54:31;;;;;;;6.20;4.75;;;5.10;98.90;;;;;;5010966;28;20199;-29
2020/12/25 07:57:07;;;;;;;4.50;4.10;;;5.00;99.10;;;;;;5010884;28;20614;-29
2020/12/25 07:59:37;;;;;;;3.80;3.50;;;5.10;99.00;;;;;;5008924;28;20191;-29
2020/12/25 08:02:09;;;;;;;3.85;3.55;;;5.00;99.50;;;;;;5009999;28;20191;-29
2020/12/25 08:04:42;;;;;;;5.65;4.80;;;5.00;99.50;;;;;;5009615;28;20195;-29
2020/12/25 08:07:13;;;;;;;4.70;4.30;;;5.00;99.40;;;;;;5011059;28;20279;-29
2020/12/25 08:09:45;;;;;;;5.00;4.50;;;5.00;99.50;;;;;;5000647;28;20251;-29
2020/12/25 08:12:19;;;;;;;4.43;4.13;;;5.00;99.40;;;;;;5007153;28;20301;-28
2020/12/25 08:14:52;;;;;;;5.00;4.53;;;5.00;99.90;;;;;;5010847;28;20341;-29
2020/12/25 08:17:22;;;;;;;4.82;4.47;;;5.00;99.80;;;;;;5010843;28;20270;-29
2020/12/25 08:19:53;;;;;;;4.43;4.03;;;5.00;99.90;;;;;;5011001;28;20203;-29
2020/12/25 08:22:23;;;;;;;4.80;4.40;;;5.00;99.90;;;;;;5008826;28;20680;-28
2020/12/25 08:24:53;;;;;;;4.55;4.15;;;5.00;99.60;;;;;;5006351;28;20233;-29
2020/12/25 08:27:24;;;;;;;4.70;4.22;;;5.10;99.60;;;;;;5000825;28;20284;-28
2020/12/25 08:29:55;;;;;;;4.40;3.78;;;5.20;99.50;;;;;;5010580;28;20651;-29
2020/12/25 08:32:25;;;;;;;4.50;4.20;;;5.20;99.20;;;;;;5010149;28;20639;-29
2020/12/25 08:35:13;;;;;;;4.50;4.10;;;5.20;99.20;;;;;;5003330;28;20211;-29
2020/12/25 08:37:54;;;;;;;4.50;4.10;;;5.20;99.40;;;;;;5002102;28;20215;-29
2020/12/25 08:40:24;;;;;;;4.43;4.10;;;5.20;99.30;;;;;;5010759;28;20226;-29
2020/12/25 08:43:06;;;;;;;5.05;3.80;;;5.20;98.70;;;;;;4995316;28;20200;-29
2020/12/25 08:45:36;;;;;;;5.78;4.20;;;5.30;99.00;;;;;;5006022;28;20612;-29
2020/12/25 08:48:09;;;;;;;3.95;3.65;;;5.30;98.80;;;;;;5010315;28;20242;-29
2020/12/25 08:50:40;;;;;;;3.90;3.60;;;5.30;98.80;;;;;;5008439;28;20195;-28
2020/12/25 08:53:16;;;;;;;4.55;4.15;;;5.40;98.80;;;;;;5008001;28;20191;-28
2020/12/25 08:55:48;;;;;;;4.85;4.45;;;5.40;98.80;;;;;;5003532;28;20230;-28
2020/12/25 08:58:22;;;;;;;4.07;3.70;;;5.30;99.20;;;;;;5000003;28;20269;-28
2020/12/25 09:01:02;;;;;;;4.90;4.20;;;5.30;99.20;;;;;;5005287;28;20559;-27
2020/12/25 09:03:39;;;;;;;6.05;3.92;;;5.30;99.10;;;;;;5010214;28;20263;-28
2020/12/25 09:06:11;;;;;;;4.60;4.20;;;5.30;99.40;;;;;;5008738;28;20260;-29
2020/12/25 09:08:41;;;;;;;5.22;4.15;;;5.20;99.20;;;;;;5010097;28;20195;-28
2020/12/25 09:11:12;;;;;;;4.72;4.30;;;5.20;99.40;;;;;;5005513;28;20298;-28
2020/12/25 09:13:43;;;;;;;4.20;3.90;;;5.20;99.40;;;;;;5010288;28;20195;-28
2020/12/25 09:16:15;;;;;;;3.97;3.67;;;5.20;99.40;;;;;;5007147;28;20547;-28
2020/12/25 09:18:46;;;;;;;4.68;4.20;;;5.20;99.90;;;;;;5006145;28;20227;-28
2020/12/25 09:21:18;;;;;;;3.92;3.60;;;5.20;99.70;;;;;;5007046;28;20202;-28
2020/12/25 09:23:48;;;;;;;4.65;4.35;;;5.20;99.80;;;;;;5009675;28;20192;-28
2020/12/25 09:26:18;;;;;;;4.05;3.70;;;5.20;99.60;;;;;;5005183;28;20677;-29
2020/12/25 09:28:50;;;;;;;4.20;3.90;;;5.20;99.70;;;;;;5009245;28;20677;-28
2020/12/25 09:31:20;;;;;;;4.75;4.30;;;5.20;99.50;;;;;;5009251;28;20210;-28
2020/12/25 09:33:50;;;;;;;4.55;4.15;;;5.10;99.60;;;;;;5010096;28;20615;-28
2020/12/25 09:36:20;;;;;;;5.03;3.78;;;5.10;99.70;;;;;;5002520;28;20199;-29
2020/12/25 09:38:50;;;;;;;4.30;4.00;;;5.10;99.80;;;;;;5009094;28;20266;-29
2020/12/25 09:41:20;;;;;;;4.05;3.65;;;5.10;99.60;;;;;;5000491;28;20991;-29
2020/12/25 09:43:51;;;;;;;5.05;4.05;;;5.10;99.70;;;;;;5009679;28;20237;-28
2020/12/25 09:46:21;;;;;;;5.07;3.70;;;5.10;99.80;;;;;;5008998;28;20191;-28
2020/12/25 09:48:51;;;;;;;5.22;4.40;;;5.10;99.90;;;;;;5009256;28;20215;-29
2020/12/25 09:51:25;;;;;;;4.80;4.22;;;5.10;99.90;;;;;;5007765;28;20214;-28
2020/12/25 09:53:55;;;;;;;4.15;3.85;;;5.10;99.80;;;;;;5004237;28;20545;-28
2020/12/25 09:56:25;;;;;;;4.72;4.07;;;5.10;99.90;;;;;;5001975;28;20200;-29
2020/12/25 09:58:56;;;;;;;4.80;3.85;;;5.10;99.90;;;;;;5006825;28;20215;-29
2020/12/25 10:01:27;;;;;;;3.67;3.38;;;5.10;99.70;;;;;;5005323;28;20225;-29
2020/12/25 10:03:57;;;;;;;4.00;3.63;;;5.10;99.40;;;;;;5002004;28;20210;-29
2020/12/25 10:06:27;;;;;;;3.92;3.63;;;5.10;99.60;;;;;;5009675;28;20573;-29
2020/12/25 10:08:57;;;;;;;4.53;4.13;;;5.00;99.80;;;;;;5009222;28;20272;-29
2020/12/25 10:11:27;;;;;;;4.25;3.85;;;5.00;99.80;;;;;;5008403;28;20226;-29
2020/12/25 10:13:59;;;;;;;4.10;3.67;;;5.10;99.20;;;;;;5009477;28;20210;-29
2020/12/25 10:16:29;;;;;;;4.60;4.20;;;5.20;99.40;;;;;;5007959;28;20681;-29
2020/12/25 10:18:59;;;;;;;3.63;3.40;;;5.20;99.50;;;;;;5009370;28;20238;-28
2020/12/25 10:21:29;;;;;;;4.25;3.85;;;5.10;99.10;;;;;;5009508;28;20309;-29
2020/12/25 10:23:59;;;;;;;4.28;3.88;;;5.10;99.60;;;;;;5009366;28;20230;-30
2020/12/25 10:26:28;;;;;;;3.78;3.40;;;5.10;99.30;;;;;;5008322;28;20651;-29
2020/12/25 10:29:00;;;;;;;3.58;3.25;;;5.20;99.10;;;;;;5008823;28;20253;-29
2020/12/25 10:31:30;;;;;;;4.07;3.35;;;5.20;98.90;;;;;;5008984;28;20229;-30
2020/12/25 10:34:00;;;;;;;4.05;3.75;;;5.10;99.50;;;;;;5007341;28;20207;-29
2020/12/25 10:36:30;;;;;;;3.97;3.40;;;5.10;99.00;;;;;;5008494;28;20191;-29
2020/12/25 10:39:00;;;;;;;4.10;3.70;;;5.10;99.40;;;;;;5009458;28;20257;-29
2020/12/25 10:41:33;;;;;;;4.03;3.70;;;5.20;99.20;;;;;;5008627;28;20495;-28
2020/12/25 10:44:04;;;;;;;4.43;3.72;;;5.10;99.40;;;;;;5009089;28;20195;-30
2020/12/25 10:46:34;;;;;;;4.55;4.15;;;5.10;99.30;;;;;;4989886;28;20196;-28
2020/12/25 10:49:05;;;;;;;4.05;3.65;;;5.00;99.30;;;;;;4989943;28;20609;-27
2020/12/25 10:51:35;;;;;;;4.00;3.70;;;5.10;99.20;;;;;;5005889;28;20192;-28
2020/12/25 10:54:05;;;;;;;4.28;3.88;;;5.10;99.70;;;;;;5008878;28;20577;-28
2020/12/25 10:56:35;;;;;;;3.92;3.63;;;5.10;99.50;;;;;;4991469;28;20238;-28
2020/12/25 10:59:25;;;;;;;3.88;3.58;;;5.10;99.80;;;;;;5007827;28;20246;-28
2020/12/25 11:01:55;;;;;;;4.45;4.05;;;5.10;99.30;;;;;;5012243;28;20195;-28
2020/12/25 11:04:25;;;;;;;4.65;3.80;;;5.10;99.40;;;;;;5012864;28;20203;-28
2020/12/25 11:06:55;;;;;;;3.83;3.55;;;5.10;99.30;;;;;;5012707;28;20199;-28
2020/12/25 11:09:25;;;;;;;3.90;3.60;;;5.10;99.50;;;;;;5009610;28;20741;-28
2020/12/25 11:11:58;;;;;;;3.70;3.40;;;5.00;99.20;;;;;;5006633;28;20232;-28
2020/12/25 11:14:29;;;;;;;3.75;3.45;;;5.00;99.20;;;;;;5011883;28;20270;-28
2020/12/25 11:16:59;;;;;;;3.60;3.30;;;5.10;99.40;;;;;;5012222;28;20191;-28
2020/12/25 11:19:29;;;;;;;3.97;3.67;;;5.10;98.90;;;;;;4992646;28;20232;-28
2020/12/25 11:21:59;;;;;;;4.00;3.70;;;5.10;98.70;;;;;;5000143;28;20707;-28
2020/12/25 11:24:29;;;;;;;3.22;3.03;;;5.10;98.40;;;;;;5011521;28;20230;-28
2020/12/25 11:26:59;;;;;;;3.30;3.10;;;5.20;98.10;;;;;;5005034;28;20289;-28
2020/12/25 11:29:30;;;;;;;4.30;3.50;;;5.20;98.10;;;;;;5006884;28;20199;-28
2020/12/25 11:32:00;;;;;;;3.67;3.38;;;5.20;98.20;;;;;;5012277;28;20199;-28
2020/12/25 11:34:30;;;;;;;4.75;4.35;;;5.20;98.20;;;;;;5010618;28;20226;-28
2020/12/25 11:37:00;;;;;;;3.75;3.45;;;5.20;98.30;;;;;;5012321;28;20203;-28
2020/12/25 11:39:30;;;;;;;4.38;3.97;;;5.10;98.80;;;;;;5011373;28;20211;-28
2020/12/25 11:42:01;;;;;;;4.53;3.65;;;5.10;98.80;;;;;;5011641;28;20574;-29
2020/12/25 11:44:32;;;;;;;5.35;3.95;;;5.20;98.90;;;;;;5011364;28;20232;-36
2020/12/25 11:47:02;;;;;;;4.10;3.70;;;5.20;98.90;;;;;;5010537;28;20188;-28
2020/12/25 11:49:34;;;;;;;3.88;3.08;;;5.20;99.10;;;;;;5011554;28;20227;-29
2020/12/25 11:52:04;;;;;;;4.53;3.95;;;5.20;98.50;;;;;;5011216;28;20207;-30
2020/12/25 11:54:35;;;;;;;3.88;3.58;;;5.20;98.60;;;;;;5011258;28;20279;-30
2020/12/25 11:57:05;;;;;;;4.50;4.10;;;5.20;98.60;;;;;;5011039;28;20203;-29
2020/12/25 11:59:36;;;;;;;3.00;2.80;;;5.20;98.60;;;;;;5007902;28;20240;-29
2020/12/25 12:02:06;;;;;;;3.47;3.17;;;5.20;98.40;;;;;;4992384;28;20203;-28
2020/12/25 12:04:37;;;;;;;3.30;3.08;;;5.20;98.30;;;;;;5011442;28;20211;-28
2020/12/25 12:07:07;;;;;;;3.83;3.50;;;5.20;98.50;;;;;;5006634;28;20419;-28
2020/12/25 12:09:37;;;;;;;4.07;3.78;;;5.20;98.20;;;;;;5007941;28;20212;-29
2020/12/25 12:12:07;;;;;;;3.22;2.83;;;5.20;98.80;;;;;;5011270;28;20285;-30
2020/12/25 12:14:44;;;;;;;2.90;2.70;;;5.20;98.70;;;;;;5011024;28;20274;-29
2020/12/25 12:17:14;;;;;;;2.90;2.70;;;5.30;98.00;;;;;;5011032;28;20245;-29
2020/12/25 12:19:44;;;;;;;6.00;3.00;;;5.30;97.60;;;;;;5011152;28;20371;-30
2020/12/25 12:22:14;;;;;;;3.00;2.70;;;5.30;97.60;;;;;;5009916;28;20196;-29
2020/12/25 12:24:44;;;;;;;3.50;3.30;;;5.30;97.30;;;;;;5010498;28;20278;-29
2020/12/25 12:27:14;;;;;;;3.40;3.10;;;5.40;97.70;;;;;;5010840;28;20211;-29
2020/12/25 12:29:45;;;;;;;3.00;2.78;;;5.40;97.30;;;;;;5007309;28;20203;-29
2020/12/25 12:32:15;;;;;;;2.97;2.78;;;5.30;96.80;;;;;;4996845;28;20204;-29
2020/12/25 12:34:45;;;;;;;2.90;2.70;;;5.40;96.80;;;;;;5004566;28;20203;-29
2020/12/25 12:37:15;;;;;;;3.10;2.80;;;5.40;97.60;;;;;;5011376;28;20677;-29
2020/12/25 12:39:45;;;;;;;4.22;3.15;;;5.40;97.60;;;;;;5010419;28;20313;-29
2020/12/25 12:42:16;;;;;;;2.88;2.60;;;5.40;97.40;;;;;;5010735;28;20203;-29
2020/12/25 12:44:47;;;;;;;3.03;2.75;;;5.40;96.70;;;;;;5010089;28;20187;-29
2020/12/25 12:47:17;;;;;;;3.25;2.70;;;5.50;97.00;;;;;;5008873;28;20199;-29
2020/12/25 12:49:47;;;;;;;3.28;2.97;;;5.40;97.20;;;;;;5000357;28;20254;-29
2020/12/25 12:52:17;;;;;;;3.88;3.58;;;5.40;96.10;;;;;;5007978;28;20207;-29
2020/12/25 12:54:47;;;;;;;3.10;2.90;;;5.40;96.60;;;;;;5010218;28;20203;-29
2020/12/25 12:57:17;;;;;;;4.32;3.70;;;5.50;96.60;;;;;;5010404;28;20262;-29
2020/12/25 12:59:49;;;;;;;3.03;2.80;;;5.50;96.40;;;;;;5009964;28;20235;-29
2020/12/25 13:02:19;;;;;;;3.20;2.90;;;5.40;96.20;;;;;;5009530;28;20199;-29
2020/12/25 13:04:48;;;;;;;3.25;2.95;;;5.40;96.10;;;;;;5010694;28;20203;-29
2020/12/25 13:07:18;;;;;;;2.58;2.13;;;5.50;96.00;;;;;;5010390;28;20308;-29
2020/12/25 13:09:49;;;;;;;3.03;2.80;;;5.50;95.60;;;;;;5010428;28;20207;-29
2020/12/25 13:12:19;;;;;;;2.90;2.70;;;5.50;96.00;;;;;;5010171;28;20227;-29
2020/12/25 13:14:50;;;;;;;3.67;3.17;;;5.50;96.30;;;;;;5010076;28;20253;-29
2020/12/25 13:17:20;;;;;;;2.92;2.70;;;5.50;96.50;;;;;;5010679;28;20191;-29